Date,TemperatureHighF,TemperatureAvgF,TemperatureLowF,DewpointHighF,DewpointAvgF,DewpointLowF,HumidityHigh,HumidityAvg,HumidityLow,PressureMaxIn,PressureMinIn,WindSpeedMaxMPH,WindSpeedAvgMPH,GustSpeedMaxMPH,PrecipitationSumIn
2013-7-1,77.9,67.6,56.9,57.0,53.1,50.0,83,62,40,30.03,29.96,13,5,20,0.08
2013-7-2,75.6,66.5,56.8,57.0,54.5,52.0,85,66,47,30.05,30.00,14,3,16,0.00
2013-7-3,80.6,69.1,57.1,61.0,56.8,51.0,94,68,38,30.08,30.00,4,1,8,0.00
2013-7-4,85.4,73.8,61.6,65.0,61.0,58.0,93,67,40,30.07,29.99,7,2,9,0.00
2013-7-5,85.6,74.7,63.5,68.0,62.9,57.0,95,69,38,30.06,29.98,8,2,11,0.00
2013-7-6,85.9,73.3,65.2,69.0,65.9,62.0,95,79,49,30.03,29.95,7,2,12,0.00
2013-7-7,90.2,78.5,66.3,73.0,68.1,62.0,91,72,51,30.00,29.94,9,3,13,0.00
2013-7-8,77.9,76.1,72.4,71.0,68.5,67.0,89,77,70,30.01,29.96,7,3,13,0.01
2013-7-18,93.6,84.5,79.6,76.0,69.2,-99.9,81,65,52,30.07,29.97,5,-25,11,0.00
2013-7-19,95.8,85.2,74.7,74.0,71.1,66.0,86,65,39,29.97,29.80,9,3,21,0.00
2013-7-20,86.3,79.0,70.0,71.0,67.6,63.0,88,69,47,29.90,29.82,9,3,11,0.00
2013-7-21,80.0,72.2,67.1,73.0,68.7,65.0,97,89,74,29.92,29.83,6,1,11,0.18
2013-7-22,87.4,75.9,64.6,74.0,69.5,64.0,99,82,58,29.86,29.75,8,2,28,0.18
2013-7-23,82.2,72.3,63.6,69.0,64.2,60.0,96,76,60,29.93,29.76,12,4,22,0.01
2013-7-24,76.2,66.9,56.8,60.0,56.6,54.0,95,72,48,30.05,29.92,9,2,13,0.00
2013-7-25,81.0,68.8,55.0,63.0,57.7,54.0,96,70,46,30.12,30.03,6,1,13,0.00
2013-7-26,78.1,66.8,60.3,70.0,63.2,58.0,97,88,76,30.05,29.90,10,2,20,0.72
2013-7-27,68.3,61.3,52.9,58.0,52.4,47.0,96,75,47,30.00,29.95,16,5,23,0.73
2013-7-28,75.5,63.3,52.5,55.0,50.7,46.0,91,66,43,30.06,29.97,12,3,18,0.00
2013-7-29,78.2,65.4,52.6,63.0,56.3,51.0,97,75,45,30.16,30.06,7,1,8,0.00
2013-7-30,72.0,66.8,62.8,69.0,65.2,59.0,98,94,73,30.13,30.00,6,1,9,0.12
2013-7-31,75.4,70.2,66.7,68.0,66.9,65.0,99,89,75,30.05,29.99,9,3,11,0.12